Aeroporto :
LOGIN :

Iscrizione | Disclaimer

   EN    FR    IT 

 










Sommario :    VFR   VFR Marginale   IFR   IFR Intensivo   IFR Molto Intensivo
Visibilità : 
Base nubi : 
>= 8 km
>= 3000ft
5 / 8 km
1000 / 3000 ft
1500m / 5 km
500 / 1000 ft
800 / 1500m
200 / 500 ft
< 800m
< 200 ft
Simboli :   Temporali  Nebbia  Neve Forte  Precipitazioni Forti  Vento > 20 kt
SIGMETs :   Varie  Temporali  Ghiacco  Turbolenza  Onda orograficha  Ceneri Vulcaniche






- Altitudine del aeroporto : 17 ft
- Codice IATA : MHQ


EFMA - Mariehamn

ULTIMO METAR :
  • 270820Z AUTO 27006KT 200V320 CAVOK 15/08 Q1024

METARs OBSOLETI :
  • 270750Z AUTO 26007KT 210V310 CAVOK 15/07 Q1024
  • 270720Z 26006KT 200V290 CAVOK 15/08 Q1024
  • 270650Z 27006KT 200V310 CAVOK 14/08 Q1024
  • 270620Z AUTO 26007KT 210V310 CAVOK 14/07 Q1024
  • 270550Z AUTO 25006KT 200V300 CAVOK 14/07 Q1024

TAF TAF EFMA
Valido dal 27 a 06 ore il 27 a 15 ore UTC


270525Z 2706/2715 27007KT CAVOK
BECMG 2713/2715 34010KT



MetMap, La meteo Aeronautica in un colpo d'occhio ! - Copyright ORBIFLY Dicembre 2007 - Disclaimer

ORBIFLY MET'MAP TEAM :

Programmazione e sviluppo : Alexandra Zaïnal
Concezione : Baudouin d'Aumeries
Aiuto per la programmazione : Marc-Olivier Méhu
Supporto tecnico e logistico : Manuel Goepfert
Aiuto per la traduzione : Arnaldo La Scala

Contatto : metmap@orbifly.com




FONTI E CREDITI :

   NOAA